sensor_id;sensor_type;location;lat;lon;timestamp;temperature;humidity
74364;DHT22;62797;49.740;10.154;2022-10-17T00:00:40;12.80;79.60
74364;DHT22;62797;49.740;10.154;2022-10-17T00:03:06;12.80;78.20
74364;DHT22;62797;49.740;10.154;2022-10-17T00:05:32;12.80;78.80
74364;DHT22;62797;49.740;10.154;2022-10-17T00:07:57;12.70;78.50
74364;DHT22;62797;49.740;10.154;2022-10-17T00:10:23;12.80;79.00
74364;DHT22;62797;49.740;10.154;2022-10-17T00:12:50;12.80;78.40
74364;DHT22;62797;49.740;10.154;2022-10-17T00:15:20;12.70;79.40
74364;DHT22;62797;49.740;10.154;2022-10-17T00:17:46;12.70;79.70
74364;DHT22;62797;49.740;10.154;2022-10-17T00:20:12;12.70;79.10
74364;DHT22;62797;49.740;10.154;2022-10-17T00:22:38;12.70;78.20
74364;DHT22;62797;49.740;10.154;2022-10-17T00:25:04;12.70;78.20
74364;DHT22;62797;49.740;10.154;2022-10-17T00:27:29;12.60;78.50
74364;DHT22;62797;49.740;10.154;2022-10-17T00:29:55;12.60;77.90
74364;DHT22;62797;49.740;10.154;2022-10-17T00:32:22;12.60;77.90
74364;DHT22;62797;49.740;10.154;2022-10-17T00:34:47;12.60;78.30
74364;DHT22;62797;49.740;10.154;2022-10-17T00:37:13;12.50;77.60
74364;DHT22;62797;49.740;10.154;2022-10-17T00:39:38;12.60;77.40
74364;DHT22;62797;49.740;10.154;2022-10-17T00:42:04;12.50;77.30
74364;DHT22;62797;49.740;10.154;2022-10-17T00:46:58;12.50;78.60
74364;DHT22;62797;49.740;10.154;2022-10-17T00:49:26;12.40;77.50
74364;DHT22;62797;49.740;10.154;2022-10-17T00:51:59;12.40;77.80
74364;DHT22;62797;49.740;10.154;2022-10-17T00:54:29;12.40;79.60
74364;DHT22;62797;49.740;10.154;2022-10-17T00:56:56;12.50;79.60
74364;DHT22;62797;49.740;10.154;2022-10-17T00:59:22;12.40;78.60
74364;DHT22;62797;49.740;10.154;2022-10-17T01:02:10;12.50;78.50
74364;DHT22;62797;49.740;10.154;2022-10-17T01:04:41;12.40;79.50
74364;DHT22;62797;49.740;10.154;2022-10-17T01:07:07;12.40;78.70
74364;DHT22;62797;49.740;10.154;2022-10-17T01:09:33;12.40;78.20
74364;DHT22;62797;49.740;10.154;2022-10-17T01:12:16;12.40;77.90
74364;DHT22;62797;49.740;10.154;2022-10-17T01:17:29;12.40;79.60
74364;DHT22;62797;49.740;10.154;2022-10-17T01:20:22;12.30;77.50
74364;DHT22;62797;49.740;10.154;2022-10-17T01:34:59;12.20;78.20
74364;DHT22;62797;49.740;10.154;2022-10-17T01:37:52;12.20;79.40
74364;DHT22;62797;49.740;10.154;2022-10-17T01:40:25;12.20;79.20
74364;DHT22;62797;49.740;10.154;2022-10-17T01:43:15;12.20;79.40
74364;DHT22;62797;49.740;10.154;2022-10-17T01:45:53;12.20;79.10
74364;DHT22;62797;49.740;10.154;2022-10-17T01:48:25;12.10;78.60
74364;DHT22;62797;49.740;10.154;2022-10-17T01:51:00;12.10;77.70
74364;DHT22;62797;49.740;10.154;2022-10-17T01:53:32;12.10;77.90
74364;DHT22;62797;49.740;10.154;2022-10-17T01:56:01;12.00;77.10
74364;DHT22;62797;49.740;10.154;2022-10-17T01:58:31;12.00;77.50
74364;DHT22;62797;49.740;10.154;2022-10-17T02:01:00;12.00;77.50
74364;DHT22;62797;49.740;10.154;2022-10-17T02:03:26;12.00;77.20
74364;DHT22;62797;49.740;10.154;2022-10-17T02:05:52;11.90;77.60
74364;DHT22;62797;49.740;10.154;2022-10-17T02:08:38;11.90;78.70
74364;DHT22;62797;49.740;10.154;2022-10-17T02:11:18;11.90;78.30
74364;DHT22;62797;49.740;10.154;2022-10-17T02:16:35;11.90;78.40
74364;DHT22;62797;49.740;10.154;2022-10-17T02:19:24;11.90;78.20
74364;DHT22;62797;49.740;10.154;2022-10-17T02:22:30;11.90;76.60
74364;DHT22;62797;49.740;10.154;2022-10-17T02:25:33;11.80;76.70
74364;DHT22;62797;49.740;10.154;2022-10-17T02:30:53;11.80;77.70
74364;DHT22;62797;49.740;10.154;2022-10-17T02:33:31;11.80;78.20
74364;DHT22;62797;49.740;10.154;2022-10-17T02:36:03;11.80;78.80
74364;DHT22;62797;49.740;10.154;2022-10-17T02:38:31;11.80;77.90
74364;DHT22;62797;49.740;10.154;2022-10-17T02:40:59;11.70;77.80
74364;DHT22;62797;49.740;10.154;2022-10-17T02:43:25;11.70;78.60
74364;DHT22;62797;49.740;10.154;2022-10-17T02:45:51;11.70;78.50
74364;DHT22;62797;49.740;10.154;2022-10-17T02:48:29;11.70;77.80
74364;DHT22;62797;49.740;10.154;2022-10-17T02:51:04;11.60;78.00
74364;DHT22;62797;49.740;10.154;2022-10-17T02:56:17;11.60;77.70
74364;DHT22;62797;49.740;10.154;2022-10-17T02:58:50;11.60;77.40
74364;DHT22;62797;49.740;10.154;2022-10-17T03:01:18;11.60;78.00
74364;DHT22;62797;49.740;10.154;2022-10-17T03:03:45;11.60;77.60
74364;DHT22;62797;49.740;10.154;2022-10-17T03:06:10;11.50;77.20
74364;DHT22;62797;49.740;10.154;2022-10-17T03:08:36;11.50;77.60
74364;DHT22;62797;49.740;10.154;2022-10-17T03:11:02;11.50;78.50
74364;DHT22;62797;49.740;10.154;2022-10-17T03:13:28;11.50;78.20
74364;DHT22;62797;49.740;10.154;2022-10-17T03:15:55;11.50;77.20
74364;DHT22;62797;49.740;10.154;2022-10-17T03:18:21;11.50;76.70
74364;DHT22;62797;49.740;10.154;2022-10-17T03:20:47;11.40;76.80
74364;DHT22;62797;49.740;10.154;2022-10-17T03:23:12;11.40;76.80
74364;DHT22;62797;49.740;10.154;2022-10-17T03:25:38;11.40;77.00
74364;DHT22;62797;49.740;10.154;2022-10-17T03:28:03;11.40;77.10
74364;DHT22;62797;49.740;10.154;2022-10-17T03:30:30;11.40;76.70
74364;DHT22;62797;49.740;10.154;2022-10-17T03:32:59;11.40;77.20
74364;DHT22;62797;49.740;10.154;2022-10-17T03:35:26;11.40;78.60
74364;DHT22;62797;49.740;10.154;2022-10-17T03:37:53;11.30;79.00
74364;DHT22;62797;49.740;10.154;2022-10-17T03:40:19;11.40;77.30
74364;DHT22;62797;49.740;10.154;2022-10-17T03:42:44;11.30;77.00
74364;DHT22;62797;49.740;10.154;2022-10-17T03:45:10;11.40;76.40
74364;DHT22;62797;49.740;10.154;2022-10-17T03:47:35;11.30;78.20
74364;DHT22;62797;49.740;10.154;2022-10-17T03:50:01;11.30;78.10
74364;DHT22;62797;49.740;10.154;2022-10-17T03:52:26;11.20;77.20
74364;DHT22;62797;49.740;10.154;2022-10-17T03:54:52;11.20;78.10
74364;DHT22;62797;49.740;10.154;2022-10-17T03:57:18;11.30;77.50
74364;DHT22;62797;49.740;10.154;2022-10-17T03:59:43;11.20;77.90
74364;DHT22;62797;49.740;10.154;2022-10-17T04:02:09;11.20;76.70
74364;DHT22;62797;49.740;10.154;2022-10-17T04:04:35;11.20;76.60
74364;DHT22;62797;49.740;10.154;2022-10-17T04:07:00;11.20;77.30
74364;DHT22;62797;49.740;10.154;2022-10-17T04:09:26;11.20;76.60
74364;DHT22;62797;49.740;10.154;2022-10-17T04:11:51;11.20;77.00
74364;DHT22;62797;49.740;10.154;2022-10-17T04:14:17;11.10;76.40
74364;DHT22;62797;49.740;10.154;2022-10-17T04:16:43;11.10;77.10
74364;DHT22;62797;49.740;10.154;2022-10-17T04:19:12;11.10;76.50
74364;DHT22;62797;49.740;10.154;2022-10-17T04:21:37;11.10;77.50
74364;DHT22;62797;49.740;10.154;2022-10-17T04:24:03;11.10;76.50
74364;DHT22;62797;49.740;10.154;2022-10-17T04:26:29;11.00;76.60
74364;DHT22;62797;49.740;10.154;2022-10-17T04:28:54;11.00;77.40
74364;DHT22;62797;49.740;10.154;2022-10-17T04:31:20;11.00;78.20
74364;DHT22;62797;49.740;10.154;2022-10-17T04:33:47;11.00;76.50
74364;DHT22;62797;49.740;10.154;2022-10-17T04:36:16;11.00;76.00
74364;DHT22;62797;49.740;10.154;2022-10-17T04:38:42;11.00;75.90
74364;DHT22;62797;49.740;10.154;2022-10-17T04:41:11;10.90;77.10
74364;DHT22;62797;49.740;10.154;2022-10-17T04:43:37;10.90;76.50
74364;DHT22;62797;49.740;10.154;2022-10-17T04:46:04;10.90;76.90
74364;DHT22;62797;49.740;10.154;2022-10-17T04:48:30;10.90;76.00
74364;DHT22;62797;49.740;10.154;2022-10-17T04:51:07;10.80;75.60
74364;DHT22;62797;49.740;10.154;2022-10-17T04:53:34;10.90;76.60
74364;DHT22;62797;49.740;10.154;2022-10-17T04:56:00;10.80;77.90
74364;DHT22;62797;49.740;10.154;2022-10-17T04:58:28;10.90;77.20
74364;DHT22;62797;49.740;10.154;2022-10-17T05:00:54;10.80;76.60
74364;DHT22;62797;49.740;10.154;2022-10-17T05:03:20;10.80;77.90
74364;DHT22;62797;49.740;10.154;2022-10-17T05:05:45;10.80;77.10
74364;DHT22;62797;49.740;10.154;2022-10-17T05:08:11;10.80;76.10
74364;DHT22;62797;49.740;10.154;2022-10-17T05:10:43;10.80;76.00
74364;DHT22;62797;49.740;10.154;2022-10-17T05:13:09;10.80;76.40
74364;DHT22;62797;49.740;10.154;2022-10-17T05:15:35;10.70;76.80
74364;DHT22;62797;49.740;10.154;2022-10-17T05:18:01;10.70;76.20
74364;DHT22;62797;49.740;10.154;2022-10-17T05:20:27;10.70;76.90
74364;DHT22;62797;49.740;10.154;2022-10-17T05:22:53;10.70;76.70
74364;DHT22;62797;49.740;10.154;2022-10-17T05:25:19;10.70;76.60
74364;DHT22;62797;49.740;10.154;2022-10-17T05:27:45;10.70;76.50
74364;DHT22;62797;49.740;10.154;2022-10-17T05:30:11;10.70;78.20
74364;DHT22;62797;49.740;10.154;2022-10-17T05:32:37;10.70;77.30
74364;DHT22;62797;49.740;10.154;2022-10-17T05:35:03;10.70;77.40
74364;DHT22;62797;49.740;10.154;2022-10-17T05:37:29;10.70;75.60
74364;DHT22;62797;49.740;10.154;2022-10-17T05:39:55;10.60;75.30
74364;DHT22;62797;49.740;10.154;2022-10-17T05:42:21;10.60;75.60
74364;DHT22;62797;49.740;10.154;2022-10-17T05:44:46;10.60;75.90
74364;DHT22;62797;49.740;10.154;2022-10-17T05:47:12;10.50;76.40
74364;DHT22;62797;49.740;10.154;2022-10-17T05:49:38;10.50;76.30
74364;DHT22;62797;49.740;10.154;2022-10-17T05:52:03;10.50;77.60
74364;DHT22;62797;49.740;10.154;2022-10-17T05:54:29;10.50;77.10
74364;DHT22;62797;49.740;10.154;2022-10-17T05:56:55;10.60;76.70
74364;DHT22;62797;49.740;10.154;2022-10-17T05:59:23;10.60;76.60
74364;DHT22;62797;49.740;10.154;2022-10-17T06:01:48;10.60;77.70
74364;DHT22;62797;49.740;10.154;2022-10-17T06:04:14;10.60;78.40
74364;DHT22;62797;49.740;10.154;2022-10-17T06:06:40;10.70;77.80
74364;DHT22;62797;49.740;10.154;2022-10-17T06:09:06;10.70;77.90
74364;DHT22;62797;49.740;10.154;2022-10-17T06:11:32;10.70;76.20
74364;DHT22;62797;49.740;10.154;2022-10-17T06:13:58;10.70;76.00
74364;DHT22;62797;49.740;10.154;2022-10-17T06:16:24;10.60;76.20
74364;DHT22;62797;49.740;10.154;2022-10-17T06:18:49;10.70;76.50
74364;DHT22;62797;49.740;10.154;2022-10-17T06:21:20;10.70;76.20
74364;DHT22;62797;49.740;10.154;2022-10-17T06:23:46;10.60;76.00
74364;DHT22;62797;49.740;10.154;2022-10-17T06:26:12;10.60;76.30
74364;DHT22;62797;49.740;10.154;2022-10-17T06:28:38;10.70;76.30
74364;DHT22;62797;49.740;10.154;2022-10-17T06:31:09;10.60;76.20
74364;DHT22;62797;49.740;10.154;2022-10-17T06:33:35;10.70;76.30
74364;DHT22;62797;49.740;10.154;2022-10-17T06:36:02;10.70;76.60
74364;DHT22;62797;49.740;10.154;2022-10-17T06:38:28;10.70;77.00
74364;DHT22;62797;49.740;10.154;2022-10-17T06:40:54;10.70;77.50
74364;DHT22;62797;49.740;10.154;2022-10-17T06:43:22;10.70;77.80
74364;DHT22;62797;49.740;10.154;2022-10-17T06:45:47;10.70;78.40
74364;DHT22;62797;49.740;10.154;2022-10-17T06:48:13;10.80;78.40
74364;DHT22;62797;49.740;10.154;2022-10-17T06:50:39;10.80;77.90
74364;DHT22;62797;49.740;10.154;2022-10-17T06:53:05;10.90;78.20
74364;DHT22;62797;49.740;10.154;2022-10-17T06:55:31;10.90;78.90
74364;DHT22;62797;49.740;10.154;2022-10-17T06:57:57;11.00;78.20
74364;DHT22;62797;49.740;10.154;2022-10-17T07:00:23;11.00;78.40
74364;DHT22;62797;49.740;10.154;2022-10-17T07:02:51;11.10;78.90
74364;DHT22;62797;49.740;10.154;2022-10-17T07:05:16;11.10;78.40
74364;DHT22;62797;49.740;10.154;2022-10-17T07:07:43;11.10;78.50
74364;DHT22;62797;49.740;10.154;2022-10-17T07:10:09;11.20;78.40
74364;DHT22;62797;49.740;10.154;2022-10-17T07:12:35;11.30;78.30
74364;DHT22;62797;49.740;10.154;2022-10-17T07:15:01;11.30;78.50
74364;DHT22;62797;49.740;10.154;2022-10-17T07:17:29;11.40;79.00
74364;DHT22;62797;49.740;10.154;2022-10-17T07:19:54;11.40;79.40
74364;DHT22;62797;49.740;10.154;2022-10-17T07:22:20;11.50;79.80
74364;DHT22;62797;49.740;10.154;2022-10-17T07:24:46;11.60;80.20
74364;DHT22;62797;49.740;10.154;2022-10-17T07:27:12;11.70;80.50
74364;DHT22;62797;49.740;10.154;2022-10-17T07:29:38;11.80;81.00
74364;DHT22;62797;49.740;10.154;2022-10-17T07:32:03;11.80;81.20
74364;DHT22;62797;49.740;10.154;2022-10-17T07:34:33;11.90;81.50
74364;DHT22;62797;49.740;10.154;2022-10-17T07:36:59;12.00;81.80
74364;DHT22;62797;49.740;10.154;2022-10-17T07:39:24;12.10;81.80
74364;DHT22;62797;49.740;10.154;2022-10-17T07:41:50;12.20;81.90
74364;DHT22;62797;49.740;10.154;2022-10-17T07:44:15;12.40;82.00
74364;DHT22;62797;49.740;10.154;2022-10-17T07:46:41;12.50;82.00
74364;DHT22;62797;49.740;10.154;2022-10-17T07:49:07;12.60;82.10
74364;DHT22;62797;49.740;10.154;2022-10-17T07:51:32;12.70;82.10
74364;DHT22;62797;49.740;10.154;2022-10-17T07:53:58;12.80;82.00
74364;DHT22;62797;49.740;10.154;2022-10-17T07:56:23;12.90;81.90
74364;DHT22;62797;49.740;10.154;2022-10-17T07:58:50;13.00;82.60
74364;DHT22;62797;49.740;10.154;2022-10-17T08:01:15;13.10;82.30
74364;DHT22;62797;49.740;10.154;2022-10-17T08:03:46;13.20;82.50
74364;DHT22;62797;49.740;10.154;2022-10-17T08:06:13;13.30;82.50
74364;DHT22;62797;49.740;10.154;2022-10-17T08:08:39;13.40;82.30
74364;DHT22;62797;49.740;10.154;2022-10-17T08:11:10;13.50;82.40
74364;DHT22;62797;49.740;10.154;2022-10-17T08:13:37;13.60;82.10
74364;DHT22;62797;49.740;10.154;2022-10-17T08:16:05;13.70;81.70
74364;DHT22;62797;49.740;10.154;2022-10-17T08:18:32;13.80;81.70
74364;DHT22;62797;49.740;10.154;2022-10-17T08:21:02;13.90;81.90
74364;DHT22;62797;49.740;10.154;2022-10-17T08:23:30;14.00;81.50
74364;DHT22;62797;49.740;10.154;2022-10-17T08:26:00;14.00;80.90
74364;DHT22;62797;49.740;10.154;2022-10-17T08:28:27;14.10;81.50
74364;DHT22;62797;49.740;10.154;2022-10-17T08:31:00;14.20;80.90
74364;DHT22;62797;49.740;10.154;2022-10-17T08:33:25;14.30;80.60
74364;DHT22;62797;49.740;10.154;2022-10-17T08:35:51;14.40;80.60
74364;DHT22;62797;49.740;10.154;2022-10-17T08:38:16;14.60;80.40
74364;DHT22;62797;49.740;10.154;2022-10-17T08:40:42;14.60;80.10
74364;DHT22;62797;49.740;10.154;2022-10-17T08:46:02;14.80;78.20
74364;DHT22;62797;49.740;10.154;2022-10-17T08:48:33;14.80;78.40
74364;DHT22;62797;49.740;10.154;2022-10-17T08:51:14;14.90;78.80
74364;DHT22;62797;49.740;10.154;2022-10-17T08:53:54;15.10;78.80
74364;DHT22;62797;49.740;10.154;2022-10-17T08:56:24;15.20;78.60
74364;DHT22;62797;49.740;10.154;2022-10-17T08:58:51;15.20;78.40
74364;DHT22;62797;49.740;10.154;2022-10-17T09:07:21;15.60;77.30
74364;DHT22;62797;49.740;10.154;2022-10-17T09:10:11;15.70;77.30
74364;DHT22;62797;49.740;10.154;2022-10-17T09:12:56;15.80;76.70
74364;DHT22;62797;49.740;10.154;2022-10-17T09:18:02;16.00;76.10
74364;DHT22;62797;49.740;10.154;2022-10-17T09:20:32;16.20;75.70
74364;DHT22;62797;49.740;10.154;2022-10-17T09:23:14;16.30;76.00
74364;DHT22;62797;49.740;10.154;2022-10-17T09:25:44;16.50;75.00
74364;DHT22;62797;49.740;10.154;2022-10-17T09:28:18;16.70;74.90
74364;DHT22;62797;49.740;10.154;2022-10-17T09:30:50;16.80;75.10
74364;DHT22;62797;49.740;10.154;2022-10-17T09:33:39;16.90;75.30
74364;DHT22;62797;49.740;10.154;2022-10-17T09:36:09;17.00;75.00
74364;DHT22;62797;49.740;10.154;2022-10-17T09:38:42;17.10;74.20
74364;DHT22;62797;49.740;10.154;2022-10-17T09:41:20;17.40;73.30
74364;DHT22;62797;49.740;10.154;2022-10-17T09:43:46;17.50;73.50
74364;DHT22;62797;49.740;10.154;2022-10-17T09:46:25;17.70;73.70
74364;DHT22;62797;49.740;10.154;2022-10-17T09:48:57;17.80;72.20
74364;DHT22;62797;49.740;10.154;2022-10-17T09:51:26;17.90;72.80
74364;DHT22;62797;49.740;10.154;2022-10-17T09:54:04;18.20;72.00
74364;DHT22;62797;49.740;10.154;2022-10-17T09:57:02;18.30;70.00
74364;DHT22;62797;49.740;10.154;2022-10-17T09:59:37;18.50;71.60
74364;DHT22;62797;49.740;10.154;2022-10-17T10:07:24;18.80;70.80
74364;DHT22;62797;49.740;10.154;2022-10-17T10:09:51;18.90;70.10
74364;DHT22;62797;49.740;10.154;2022-10-17T10:12:20;19.20;69.00
74364;DHT22;62797;49.740;10.154;2022-10-17T10:14:46;19.40;67.80
74364;DHT22;62797;49.740;10.154;2022-10-17T10:17:38;19.50;67.80
74364;DHT22;62797;49.740;10.154;2022-10-17T10:20:30;19.70;65.60
74364;DHT22;62797;49.740;10.154;2022-10-17T10:23:16;19.70;66.60
74364;DHT22;62797;49.740;10.154;2022-10-17T10:25:55;19.80;66.70
74364;DHT22;62797;49.740;10.154;2022-10-17T10:28:30;19.80;68.50
74364;DHT22;62797;49.740;10.154;2022-10-17T10:30:59;20.00;67.00
74364;DHT22;62797;49.740;10.154;2022-10-17T10:33:26;20.10;66.50
74364;DHT22;62797;49.740;10.154;2022-10-17T10:36:04;20.40;64.10
74364;DHT22;62797;49.740;10.154;2022-10-17T10:38:32;20.40;65.80
74364;DHT22;62797;49.740;10.154;2022-10-17T10:41:04;20.50;65.00
74364;DHT22;62797;49.740;10.154;2022-10-17T10:43:42;20.60;61.90
74364;DHT22;62797;49.740;10.154;2022-10-17T10:46:28;20.80;62.50
74364;DHT22;62797;49.740;10.154;2022-10-17T10:51:41;21.10;61.30
74364;DHT22;62797;49.740;10.154;2022-10-17T10:54:23;21.30;60.20
74364;DHT22;62797;49.740;10.154;2022-10-17T10:56:57;21.50;58.70
74364;DHT22;62797;49.740;10.154;2022-10-17T11:04:43;21.90;53.00
74364;DHT22;62797;49.740;10.154;2022-10-17T11:10:07;21.90;52.40
74364;DHT22;62797;49.740;10.154;2022-10-17T11:17:54;22.10;52.60
74364;DHT22;62797;49.740;10.154;2022-10-17T11:26:17;22.30;47.30
74364;DHT22;62797;49.740;10.154;2022-10-17T11:28:51;22.40;44.80
74364;DHT22;62797;49.740;10.154;2022-10-17T11:31:17;22.50;47.40
74364;DHT22;62797;49.740;10.154;2022-10-17T11:33:46;22.60;44.90
74364;DHT22;62797;49.740;10.154;2022-10-17T11:36:15;22.70;43.80
74364;DHT22;62797;49.740;10.154;2022-10-17T11:38:47;22.80;44.90
74364;DHT22;62797;49.740;10.154;2022-10-17T11:41:36;22.90;43.10
74364;DHT22;62797;49.740;10.154;2022-10-17T11:46:51;23.10;44.70
74364;DHT22;62797;49.740;10.154;2022-10-17T11:49:21;23.20;44.70
74364;DHT22;62797;49.740;10.154;2022-10-17T11:51:54;23.50;45.40
74364;DHT22;62797;49.740;10.154;2022-10-17T11:54:30;23.70;41.70
74364;DHT22;62797;49.740;10.154;2022-10-17T12:00:19;23.80;43.80
74364;DHT22;62797;49.740;10.154;2022-10-17T12:13:48;23.90;43.60
74364;DHT22;62797;49.740;10.154;2022-10-17T12:18:42;24.00;45.80
74364;DHT22;62797;49.740;10.154;2022-10-17T12:21:08;24.10;44.00
74364;DHT22;62797;49.740;10.154;2022-10-17T12:23:35;24.20;42.20
74364;DHT22;62797;49.740;10.154;2022-10-17T12:26:05;24.20;42.40
74364;DHT22;62797;49.740;10.154;2022-10-17T12:31:09;24.30;42.90
74364;DHT22;62797;49.740;10.154;2022-10-17T12:33:58;24.40;44.20
74364;DHT22;62797;49.740;10.154;2022-10-17T12:46:50;24.70;39.40
74364;DHT22;62797;49.740;10.154;2022-10-17T13:02:46;24.80;38.70
74364;DHT22;62797;49.740;10.154;2022-10-17T13:05:25;24.80;36.50
74364;DHT22;62797;49.740;10.154;2022-10-17T13:07:52;24.80;38.10
74364;DHT22;62797;49.740;10.154;2022-10-17T13:10:27;25.10;38.00
74364;DHT22;62797;49.740;10.154;2022-10-17T13:15:32;24.90;35.30
74364;DHT22;62797;49.740;10.154;2022-10-17T13:17:59;24.90;36.20
74364;DHT22;62797;49.740;10.154;2022-10-17T13:20:27;24.80;34.30
74364;DHT22;62797;49.740;10.154;2022-10-17T13:22:55;24.80;36.30
74364;DHT22;62797;49.740;10.154;2022-10-17T13:25:22;24.80;37.90
74364;DHT22;62797;49.740;10.154;2022-10-17T13:27:48;24.80;35.00
74364;DHT22;62797;49.740;10.154;2022-10-17T13:32:51;24.70;33.60
74364;DHT22;62797;49.740;10.154;2022-10-17T13:35:27;24.60;35.70
74364;DHT22;62797;49.740;10.154;2022-10-17T13:37:53;24.70;35.60
74364;DHT22;62797;49.740;10.154;2022-10-17T13:40:23;24.80;36.10
74364;DHT22;62797;49.740;10.154;2022-10-17T13:42:50;24.80;33.70
74364;DHT22;62797;49.740;10.154;2022-10-17T13:45:32;24.80;32.90
74364;DHT22;62797;49.740;10.154;2022-10-17T13:48:06;25.00;33.60
74364;DHT22;62797;49.740;10.154;2022-10-17T13:50:41;25.10;35.80
74364;DHT22;62797;49.740;10.154;2022-10-17T13:53:34;25.30;34.80
74364;DHT22;62797;49.740;10.154;2022-10-17T13:56:06;25.50;30.50
74364;DHT22;62797;49.740;10.154;2022-10-17T13:58:42;25.50;30.30
74364;DHT22;62797;49.740;10.154;2022-10-17T14:01:09;25.50;29.40
74364;DHT22;62797;49.740;10.154;2022-10-17T14:03:36;25.40;28.30
74364;DHT22;62797;49.740;10.154;2022-10-17T14:08:29;25.30;28.60
74364;DHT22;62797;49.740;10.154;2022-10-17T14:10:56;25.20;29.30
74364;DHT22;62797;49.740;10.154;2022-10-17T14:13:27;25.30;29.40
74364;DHT22;62797;49.740;10.154;2022-10-17T14:15:58;25.60;30.20
74364;DHT22;62797;49.740;10.154;2022-10-17T14:18:28;25.70;25.90
74364;DHT22;62797;49.740;10.154;2022-10-17T14:20:53;25.80;27.70
74364;DHT22;62797;49.740;10.154;2022-10-17T14:23:45;25.90;26.40
74364;DHT22;62797;49.740;10.154;2022-10-17T14:26:17;26.00;26.80
74364;DHT22;62797;49.740;10.154;2022-10-17T14:29:17;25.90;26.10
74364;DHT22;62797;49.740;10.154;2022-10-17T14:31:35;25.80;27.00
74364;DHT22;62797;49.740;10.154;2022-10-17T14:34:02;25.80;25.10
74364;DHT22;62797;49.740;10.154;2022-10-17T14:36:32;26.00;27.70
74364;DHT22;62797;49.740;10.154;2022-10-17T14:38:58;26.20;27.50
74364;DHT22;62797;49.740;10.154;2022-10-17T14:41:26;26.20;27.30
74364;DHT22;62797;49.740;10.154;2022-10-17T14:44:01;26.30;24.70
74364;DHT22;62797;49.740;10.154;2022-10-17T14:46:27;26.20;24.80
74364;DHT22;62797;49.740;10.154;2022-10-17T14:49:05;26.10;23.00
74364;DHT22;62797;49.740;10.154;2022-10-17T14:51:31;26.00;23.20
74364;DHT22;62797;49.740;10.154;2022-10-17T14:54:00;25.90;23.60
74364;DHT22;62797;49.740;10.154;2022-10-17T14:56:34;25.90;23.70
74364;DHT22;62797;49.740;10.154;2022-10-17T14:59:00;25.80;23.20
74364;DHT22;62797;49.740;10.154;2022-10-17T15:01:27;25.60;24.30
74364;DHT22;62797;49.740;10.154;2022-10-17T15:03:53;25.40;25.70
74364;DHT22;62797;49.740;10.154;2022-10-17T15:06:32;25.30;24.70
74364;DHT22;62797;49.740;10.154;2022-10-17T15:08:58;25.50;27.90
74364;DHT22;62797;49.740;10.154;2022-10-17T15:11:23;25.90;27.40
74364;DHT22;62797;49.740;10.154;2022-10-17T15:13:50;26.10;26.60
74364;DHT22;62797;49.740;10.154;2022-10-17T15:16:18;26.30;26.70
74364;DHT22;62797;49.740;10.154;2022-10-17T15:18:43;26.50;25.00
74364;DHT22;62797;49.740;10.154;2022-10-17T15:21:12;26.70;26.00
74364;DHT22;62797;49.740;10.154;2022-10-17T15:23:38;26.80;25.10
74364;DHT22;62797;49.740;10.154;2022-10-17T15:26:14;26.90;26.60
74364;DHT22;62797;49.740;10.154;2022-10-17T15:28:40;26.70;25.30
74364;DHT22;62797;49.740;10.154;2022-10-17T15:31:09;26.50;26.00
74364;DHT22;62797;49.740;10.154;2022-10-17T15:33:35;26.00;26.80
74364;DHT22;62797;49.740;10.154;2022-10-17T15:36:01;25.60;27.20
74364;DHT22;62797;49.740;10.154;2022-10-17T15:38:26;25.50;27.40
74364;DHT22;62797;49.740;10.154;2022-10-17T15:40:52;25.30;27.70
74364;DHT22;62797;49.740;10.154;2022-10-17T15:43:18;25.00;28.00
74364;DHT22;62797;49.740;10.154;2022-10-17T15:45:43;24.70;28.40
74364;DHT22;62797;49.740;10.154;2022-10-17T15:48:20;24.40;28.80
74364;DHT22;62797;49.740;10.154;2022-10-17T15:50:47;24.20;29.40
74364;DHT22;62797;49.740;10.154;2022-10-17T15:53:13;24.00;30.00
74364;DHT22;62797;49.740;10.154;2022-10-17T15:55:39;23.80;30.50
74364;DHT22;62797;49.740;10.154;2022-10-17T15:58:05;23.60;32.10
74364;DHT22;62797;49.740;10.154;2022-10-17T16:00:31;23.40;31.80
74364;DHT22;62797;49.740;10.154;2022-10-17T16:02:56;23.20;32.50
74364;DHT22;62797;49.740;10.154;2022-10-17T16:05:23;23.10;33.30
74364;DHT22;62797;49.740;10.154;2022-10-17T16:07:54;23.00;33.60
74364;DHT22;62797;49.740;10.154;2022-10-17T16:10:20;22.80;35.10
74364;DHT22;62797;49.740;10.154;2022-10-17T16:12:46;22.60;35.90
74364;DHT22;62797;49.740;10.154;2022-10-17T16:15:25;22.40;36.90
74364;DHT22;62797;49.740;10.154;2022-10-17T16:17:53;22.20;36.30
74364;DHT22;62797;49.740;10.154;2022-10-17T16:20:20;21.90;36.80
74364;DHT22;62797;49.740;10.154;2022-10-17T16:22:46;21.70;37.40
74364;DHT22;62797;49.740;10.154;2022-10-17T16:25:24;21.60;37.30
74364;DHT22;62797;49.740;10.154;2022-10-17T16:27:51;21.50;38.90
74364;DHT22;62797;49.740;10.154;2022-10-17T16:30:18;21.30;39.30
74364;DHT22;62797;49.740;10.154;2022-10-17T16:32:44;21.10;40.80
74364;DHT22;62797;49.740;10.154;2022-10-17T16:35:17;20.80;42.10
74364;DHT22;62797;49.740;10.154;2022-10-17T16:37:43;20.60;43.70
74364;DHT22;62797;49.740;10.154;2022-10-17T16:40:09;20.30;45.60
74364;DHT22;62797;49.740;10.154;2022-10-17T16:42:35;20.10;46.00
74364;DHT22;62797;49.740;10.154;2022-10-17T16:45:00;19.90;47.80
74364;DHT22;62797;49.740;10.154;2022-10-17T16:47:26;19.80;48.30
74364;DHT22;62797;49.740;10.154;2022-10-17T16:49:51;19.60;49.10
74364;DHT22;62797;49.740;10.154;2022-10-17T16:52:17;19.50;50.80
74364;DHT22;62797;49.740;10.154;2022-10-17T16:54:43;19.30;52.60
74364;DHT22;62797;49.740;10.154;2022-10-17T16:57:08;19.20;53.10
74364;DHT22;62797;49.740;10.154;2022-10-17T16:59:34;19.00;53.80
74364;DHT22;62797;49.740;10.154;2022-10-17T17:01:59;18.90;54.50
74364;DHT22;62797;49.740;10.154;2022-10-17T17:04:25;18.80;55.80
74364;DHT22;62797;49.740;10.154;2022-10-17T17:06:51;18.60;56.50
74364;DHT22;62797;49.740;10.154;2022-10-17T17:09:16;18.60;56.70
74364;DHT22;62797;49.740;10.154;2022-10-17T17:11:42;18.60;57.40
74364;DHT22;62797;49.740;10.154;2022-10-17T17:14:07;18.50;57.90
74364;DHT22;62797;49.740;10.154;2022-10-17T17:16:34;18.40;57.90
74364;DHT22;62797;49.740;10.154;2022-10-17T17:19:09;18.30;57.70
74364;DHT22;62797;49.740;10.154;2022-10-17T17:21:35;18.30;59.00
74364;DHT22;62797;49.740;10.154;2022-10-17T17:24:02;18.10;59.50
74364;DHT22;62797;49.740;10.154;2022-10-17T17:26:30;18.00;60.10